createdAt,value
2022-10-26T00:01:26.174Z,13.17
2022-10-26T00:03:57.539Z,13.19
2022-10-26T00:06:27.672Z,13.20
2022-10-26T00:08:57.902Z,13.19
2022-10-26T00:11:27.552Z,13.18
2022-10-26T00:13:55.789Z,13.19
2022-10-26T00:16:27.317Z,13.19
2022-10-26T00:18:55.870Z,13.20
2022-10-26T00:21:24.455Z,13.20
2022-10-26T00:23:52.733Z,13.21
2022-10-26T00:26:20.923Z,13.16
2022-10-26T00:28:50.485Z,13.16
2022-10-26T00:31:18.731Z,13.16
2022-10-26T00:33:47.464Z,13.13
2022-10-26T00:36:16.651Z,13.13
2022-10-26T00:38:49.180Z,13.15
2022-10-26T00:41:18.803Z,13.16
2022-10-26T00:43:47.512Z,13.18
2022-10-26T00:46:21.300Z,13.16
2022-10-26T00:48:54.367Z,13.17
2022-10-26T00:51:32.542Z,13.17
2022-10-26T00:54:03.969Z,13.17
2022-10-26T00:56:35.388Z,13.16
2022-10-26T00:59:07.623Z,13.17
2022-10-26T01:01:41.866Z,13.17
2022-10-26T01:04:10.667Z,13.18
2022-10-26T01:06:39.491Z,13.19
2022-10-26T01:09:08.161Z,13.19
2022-10-26T01:11:36.642Z,13.20
2022-10-26T01:14:10.240Z,13.21
2022-10-26T01:20:19.845Z,13.18
2022-10-26T01:22:58.129Z,13.14
2022-10-26T01:25:51.472Z,13.09
2022-10-26T01:28:40.897Z,13.06
2022-10-26T01:31:16.014Z,13.05
2022-10-26T01:33:50.536Z,13.02
2022-10-26T01:39:11.999Z,13.01
2022-10-26T01:41:47.163Z,13.03
2022-10-26T01:44:21.541Z,13.05
2022-10-26T01:46:54.209Z,13.05
2022-10-26T01:49:27.024Z,13.06
2022-10-26T01:51:55.762Z,13.07
2022-10-26T01:54:24.364Z,13.08
2022-10-26T01:56:56.975Z,13.07
2022-10-26T01:59:56.452Z,13.06
2022-10-26T02:03:13.721Z,13.05
2022-10-26T02:05:56.022Z,13.05
2022-10-26T02:08:59.219Z,13.06
2022-10-26T02:11:39.869Z,13.04
2022-10-26T02:14:19.922Z,13.05
2022-10-26T02:16:56.172Z,13.06
2022-10-26T02:19:37.335Z,13.07
2022-10-26T02:22:16.491Z,13.06
2022-10-26T02:24:45.882Z,13.06
2022-10-26T02:27:20.904Z,13.06
2022-10-26T02:29:52.066Z,13.08
2022-10-26T02:32:23.276Z,13.09
2022-10-26T02:34:54.804Z,13.09
2022-10-26T02:37:24.971Z,13.09
2022-10-26T02:39:55.926Z,13.09
2022-10-26T02:42:25.844Z,13.09
2022-10-26T02:44:58.780Z,13.07
2022-10-26T02:47:27.486Z,13.06
2022-10-26T02:49:57.531Z,13.05
2022-10-26T02:52:36.771Z,13.05
2022-10-26T02:55:12.352Z,13.03
2022-10-26T02:57:43.364Z,13.01
2022-10-26T03:00:15.875Z,12.99
2022-10-26T03:02:48.429Z,12.99
2022-10-26T03:05:24.341Z,12.97
2022-10-26T03:07:53.301Z,12.97
2022-10-26T03:10:22.315Z,12.95
2022-10-26T03:12:51.164Z,12.95
2022-10-26T03:15:19.943Z,12.95
2022-10-26T03:17:48.705Z,12.94
2022-10-26T03:20:19.110Z,12.94
2022-10-26T03:22:48.996Z,12.95
2022-10-26T03:25:17.695Z,12.95
2022-10-26T03:27:48.385Z,12.96
2022-10-26T03:30:17.037Z,12.96
2022-10-26T03:32:45.196Z,12.92
2022-10-26T03:35:13.733Z,12.91
2022-10-26T03:37:43.304Z,12.90
2022-10-26T03:40:12.981Z,12.88
2022-10-26T03:42:41.801Z,12.87
2022-10-26T03:45:11.591Z,12.87
2022-10-26T03:47:45.708Z,12.86
2022-10-26T03:50:16.833Z,12.87
2022-10-26T03:52:48.280Z,12.87
2022-10-26T03:55:17.319Z,12.88
2022-10-26T03:57:46.727Z,12.89
2022-10-26T04:00:18.325Z,12.90
2022-10-26T04:02:48.790Z,12.89
2022-10-26T04:05:17.501Z,12.91
2022-10-26T04:07:54.205Z,12.90
2022-10-26T04:10:22.935Z,12.91
2022-10-26T04:12:51.527Z,12.90
2022-10-26T04:15:20.050Z,12.89
2022-10-26T04:17:49.229Z,12.83
2022-10-26T04:20:17.942Z,12.81
2022-10-26T04:22:47.495Z,12.74
2022-10-26T04:25:16.084Z,12.71
2022-10-26T04:27:44.549Z,12.68
2022-10-26T04:30:14.348Z,12.65
2022-10-26T04:32:42.849Z,12.61
2022-10-26T04:35:14.583Z,12.58
2022-10-26T04:37:44.099Z,12.58
2022-10-26T04:40:14.421Z,12.58
2022-10-26T04:42:44.090Z,12.59
2022-10-26T04:45:13.604Z,12.61
2022-10-26T04:47:42.518Z,12.62
2022-10-26T04:50:12.752Z,12.63
2022-10-26T04:52:41.894Z,12.64
2022-10-26T04:55:10.535Z,12.63
2022-10-26T04:57:40.093Z,12.63
2022-10-26T05:00:10.439Z,12.63
2022-10-26T05:02:38.952Z,12.63
2022-10-26T05:05:09.931Z,12.65
2022-10-26T05:07:41.235Z,12.64
2022-10-26T05:10:10.859Z,12.64
2022-10-26T05:12:40.399Z,12.64
2022-10-26T05:15:11.957Z,12.64
2022-10-26T05:17:40.499Z,12.61
2022-10-26T05:20:13.308Z,12.61
2022-10-26T05:22:41.830Z,12.61
2022-10-26T05:25:10.587Z,12.61
2022-10-26T05:27:40.435Z,12.62
2022-10-26T05:30:10.338Z,12.62
2022-10-26T05:32:38.822Z,12.63
2022-10-26T05:35:08.095Z,12.65
2022-10-26T05:37:36.559Z,12.67
2022-10-26T05:40:05.543Z,12.66
2022-10-26T05:42:34.071Z,12.65
2022-10-26T05:45:03.628Z,12.64
2022-10-26T05:47:32.169Z,12.62
2022-10-26T05:50:00.679Z,12.62
2022-10-26T05:52:29.238Z,12.62
2022-10-26T05:54:57.783Z,12.63
2022-10-26T05:57:26.743Z,12.64
2022-10-26T05:59:55.844Z,12.64
2022-10-26T06:02:38.641Z,12.65
2022-10-26T06:05:11.102Z,12.67
2022-10-26T06:07:40.065Z,12.66
2022-10-26T06:10:12.147Z,12.65
2022-10-26T06:12:41.393Z,12.64
2022-10-26T06:15:16.969Z,12.62
2022-10-26T06:18:01.630Z,12.59
2022-10-26T06:20:45.707Z,12.57
2022-10-26T06:23:38.721Z,12.57
2022-10-26T06:26:16.430Z,12.60
2022-10-26T06:28:53.900Z,12.64
2022-10-26T06:31:23.004Z,12.67
2022-10-26T06:33:58.043Z,12.70
2022-10-26T06:36:28.502Z,12.73
2022-10-26T06:39:01.682Z,12.75
2022-10-26T06:41:32.801Z,12.77
2022-10-26T06:44:02.392Z,12.79
2022-10-26T06:46:40.282Z,12.82
2022-10-26T06:49:19.473Z,12.82
2022-10-26T06:51:53.781Z,12.82
2022-10-26T06:54:30.169Z,12.82
2022-10-26T06:56:59.155Z,12.81
2022-10-26T06:59:38.169Z,12.82
2022-10-26T07:02:07.335Z,12.86
2022-10-26T07:04:36.992Z,12.90
2022-10-26T07:07:05.742Z,12.95
2022-10-26T07:09:34.264Z,13.00
2022-10-26T07:12:02.700Z,13.03
2022-10-26T07:14:31.355Z,13.08
2022-10-26T07:16:59.632Z,13.12
2022-10-26T07:19:28.127Z,13.15
2022-10-26T07:21:59.242Z,13.17
2022-10-26T07:24:28.092Z,13.19
2022-10-26T07:26:57.157Z,13.22
2022-10-26T07:29:26.776Z,13.26
2022-10-26T07:31:55.680Z,13.28
2022-10-26T07:34:24.196Z,13.31
2022-10-26T07:36:52.799Z,13.35
2022-10-26T07:39:22.482Z,13.40
2022-10-26T07:41:50.683Z,13.44
2022-10-26T07:44:19.280Z,13.49
2022-10-26T07:46:47.819Z,13.55
2022-10-26T07:49:19.249Z,13.58
2022-10-26T07:51:48.307Z,13.65
2022-10-26T07:54:16.880Z,13.69
2022-10-26T07:56:46.461Z,13.76
2022-10-26T07:59:14.976Z,13.83
2022-10-26T08:01:43.615Z,13.91
2022-10-26T08:04:12.507Z,14.01
2022-10-26T08:06:41.070Z,14.11
2022-10-26T08:09:09.521Z,14.26
2022-10-26T08:11:37.841Z,14.38
2022-10-26T08:14:07.571Z,14.52
2022-10-26T08:16:35.838Z,14.67
2022-10-26T08:19:04.322Z,14.83
2022-10-26T08:21:40.041Z,14.94
2022-10-26T08:24:09.671Z,15.07
2022-10-26T08:26:38.166Z,15.40
2022-10-26T08:29:07.899Z,15.84
2022-10-26T08:31:36.431Z,16.31
2022-10-26T08:34:05.029Z,16.56
2022-10-26T08:36:33.239Z,16.70
2022-10-26T08:39:01.487Z,16.74
2022-10-26T08:41:38.117Z,16.88
2022-10-26T08:44:20.673Z,17.29
2022-10-26T08:46:55.569Z,17.72
2022-10-26T08:49:28.143Z,18.18
2022-10-26T08:52:00.980Z,18.33
2022-10-26T08:54:39.615Z,18.23
2022-10-26T08:57:20.193Z,18.05
2022-10-26T08:59:58.847Z,17.83
2022-10-26T09:02:27.516Z,17.68
2022-10-26T09:04:59.085Z,17.56
2022-10-26T09:07:48.013Z,17.45
2022-10-26T09:10:31.759Z,17.39
2022-10-26T09:13:10.955Z,17.34
2022-10-26T09:15:57.880Z,17.34
2022-10-26T09:18:42.645Z,17.31
2022-10-26T09:21:27.699Z,17.30
2022-10-26T09:24:07.679Z,17.30
2022-10-26T09:26:42.425Z,17.37
2022-10-26T09:29:14.267Z,17.46
2022-10-26T09:31:48.138Z,17.75
2022-10-26T09:34:26.376Z,17.87
2022-10-26T09:36:57.017Z,17.84
2022-10-26T09:39:36.851Z,17.91
2022-10-26T09:42:16.677Z,17.96
2022-10-26T09:44:51.822Z,18.04
2022-10-26T09:47:34.665Z,18.17
2022-10-26T09:50:17.570Z,18.49
2022-10-26T09:52:45.759Z,19.02
2022-10-26T09:55:15.112Z,19.59
2022-10-26T09:57:46.639Z,19.79
2022-10-26T10:00:17.984Z,19.71
2022-10-26T10:02:52.305Z,19.59
2022-10-26T10:05:51.302Z,19.41
2022-10-26T10:08:22.818Z,19.29
2022-10-26T10:11:00.902Z,19.16
2022-10-26T10:13:32.343Z,19.04
2022-10-26T10:16:08.924Z,18.98
2022-10-26T10:18:39.989Z,18.98
2022-10-26T10:21:10.129Z,18.98
2022-10-26T10:23:48.780Z,18.99
2022-10-26T10:26:17.346Z,19.07
2022-10-26T10:28:59.443Z,19.35
2022-10-26T10:31:32.875Z,20.02
2022-10-26T10:34:16.123Z,20.72
2022-10-26T10:36:44.726Z,21.48
2022-10-26T10:39:40.607Z,22.08
2022-10-26T10:42:19.320Z,22.31
2022-10-26T10:44:51.967Z,22.55
2022-10-26T10:47:25.119Z,22.53
2022-10-26T10:49:58.461Z,22.60
2022-10-26T10:52:29.725Z,22.67
2022-10-26T10:55:19.146Z,22.91
2022-10-26T10:58:07.083Z,23.22
2022-10-26T11:00:38.780Z,23.62
2022-10-26T11:03:26.222Z,23.45
2022-10-26T11:06:09.571Z,23.05
2022-10-26T11:08:43.984Z,22.71
2022-10-26T11:11:16.606Z,22.45
2022-10-26T11:13:53.261Z,22.25
2022-10-26T11:16:27.409Z,22.14
2022-10-26T11:19:03.021Z,22.02
2022-10-26T11:21:37.782Z,21.86
2022-10-26T11:24:16.185Z,21.74
2022-10-26T11:26:52.687Z,21.58
2022-10-26T11:29:36.624Z,21.43
2022-10-26T11:32:16.424Z,21.32
2022-10-26T11:34:54.946Z,21.21
2022-10-26T11:37:33.483Z,21.11
2022-10-26T11:40:17.277Z,21.03
2022-10-26T11:42:51.588Z,20.96
2022-10-26T11:45:27.119Z,20.89
2022-10-26T11:48:02.824Z,20.85
2022-10-26T11:50:38.630Z,20.80
2022-10-26T11:53:15.984Z,20.76
2022-10-26T11:55:48.685Z,20.74
2022-10-26T11:58:18.021Z,20.73
2022-10-26T12:00:52.653Z,20.74
2022-10-26T12:03:24.480Z,20.74
2022-10-26T12:05:53.945Z,20.75
2022-10-26T12:08:28.687Z,20.79
2022-10-26T12:13:46.676Z,20.86
2022-10-26T12:16:22.809Z,20.88
2022-10-26T12:18:56.969Z,20.95
2022-10-26T12:21:29.400Z,21.02
2022-10-26T12:24:01.585Z,21.09
2022-10-26T12:26:40.854Z,21.19
2022-10-26T12:29:36.741Z,21.33
2022-10-26T12:32:21.595Z,21.52
2022-10-26T12:35:02.577Z,21.60
2022-10-26T12:37:37.543Z,21.88
2022-10-26T12:40:46.832Z,22.62
2022-10-26T12:43:36.689Z,23.30
2022-10-26T12:46:45.493Z,23.97
2022-10-26T12:50:10.609Z,24.55
2022-10-26T12:52:54.769Z,24.99
2022-10-26T12:56:05.289Z,25.44
2022-10-26T12:59:21.187Z,25.78
2022-10-26T13:02:19.188Z,25.81
2022-10-26T13:05:34.526Z,25.78
2022-10-26T13:08:03.956Z,25.68
2022-10-26T13:10:32.289Z,25.80
2022-10-26T13:13:05.529Z,25.88
2022-10-26T13:15:39.651Z,25.85
2022-10-26T13:18:17.937Z,25.79
2022-10-26T13:21:03.397Z,25.61
2022-10-26T13:23:35.471Z,25.38
2022-10-26T13:26:11.944Z,25.20
2022-10-26T13:28:51.667Z,25.15
2022-10-26T13:31:59.343Z,25.27
2022-10-26T13:34:31.961Z,25.44
2022-10-26T13:37:13.693Z,25.48
2022-10-26T13:39:45.179Z,25.52
2022-10-26T13:42:17.957Z,25.52
2022-10-26T13:44:54.520Z,25.49
2022-10-26T13:47:29.555Z,25.47
2022-10-26T13:50:06.611Z,25.45
2022-10-26T13:52:39.550Z,25.39
2022-10-26T13:55:18.001Z,25.31
2022-10-26T13:57:59.740Z,25.19
2022-10-26T14:00:29.567Z,25.06
2022-10-26T14:02:57.784Z,24.94
2022-10-26T14:05:26.261Z,24.81
2022-10-26T14:07:57.717Z,24.69
2022-10-26T14:10:31.147Z,24.48
2022-10-26T14:13:00.281Z,24.28
2022-10-26T14:15:33.016Z,24.08
2022-10-26T14:18:04.388Z,23.92
2022-10-26T14:20:33.776Z,23.76
2022-10-26T14:23:02.287Z,23.62
2022-10-26T14:25:42.057Z,23.49
2022-10-26T14:28:26.148Z,23.35
2022-10-26T14:30:57.186Z,23.22
2022-10-26T14:33:29.782Z,23.10
2022-10-26T14:35:58.631Z,23.00
2022-10-26T14:38:31.693Z,22.88
2022-10-26T14:41:00.156Z,22.79
2022-10-26T14:43:28.873Z,22.69
2022-10-26T14:45:58.683Z,22.64
2022-10-26T14:48:31.973Z,22.59
2022-10-26T14:51:08.325Z,22.56
2022-10-26T14:53:40.535Z,22.53
2022-10-26T14:56:24.326Z,22.48
2022-10-26T14:58:54.155Z,22.41
2022-10-26T15:01:36.789Z,22.30
2022-10-26T15:04:07.977Z,22.18
2022-10-26T15:06:44.426Z,22.09
2022-10-26T15:09:38.485Z,21.97
2022-10-26T15:12:09.426Z,21.87
2022-10-26T15:14:38.286Z,21.76
2022-10-26T15:17:07.820Z,21.69
2022-10-26T15:19:39.370Z,21.63
2022-10-26T15:22:21.360Z,21.53
2022-10-26T15:24:54.373Z,21.43
2022-10-26T15:27:24.758Z,21.35
2022-10-26T15:30:09.195Z,21.26
2022-10-26T15:32:39.108Z,21.18
2022-10-26T15:35:31.558Z,21.10
2022-10-26T15:38:01.566Z,21.02
2022-10-26T15:40:32.251Z,20.94
2022-10-26T15:43:02.238Z,20.86
2022-10-26T15:45:35.037Z,20.77
2022-10-26T15:48:20.767Z,20.70
2022-10-26T15:50:49.320Z,20.59
2022-10-26T15:53:22.204Z,20.52
2022-10-26T15:55:52.806Z,20.42
2022-10-26T15:58:21.390Z,20.34
2022-10-26T16:00:50.306Z,20.25
2022-10-26T16:03:22.986Z,20.16
2022-10-26T16:05:57.694Z,20.06
2022-10-26T16:08:27.707Z,19.97
2022-10-26T16:10:56.490Z,19.83
2022-10-26T16:13:26.432Z,19.74
2022-10-26T16:15:54.636Z,19.68
2022-10-26T16:18:24.154Z,19.58
2022-10-26T16:20:52.638Z,19.49
2022-10-26T16:23:21.148Z,19.41
2022-10-26T16:25:49.643Z,19.34
2022-10-26T16:28:18.272Z,19.28
2022-10-26T16:30:46.837Z,19.20
2022-10-26T16:33:15.396Z,19.12
2022-10-26T16:35:44.900Z,19.07
2022-10-26T16:38:13.097Z,19.01
2022-10-26T16:40:43.175Z,18.96
2022-10-26T16:43:11.796Z,18.87
2022-10-26T16:45:42.174Z,18.82
2022-10-26T16:48:14.865Z,18.77
2022-10-26T16:50:44.617Z,18.70
2022-10-26T16:53:13.098Z,18.62
2022-10-26T16:58:15.187Z,18.50
2022-10-26T17:00:43.377Z,18.44
2022-10-26T17:03:11.575Z,18.39
2022-10-26T17:05:39.779Z,18.32
2022-10-26T17:08:10.059Z,18.27
2022-10-26T17:10:38.588Z,18.21
2022-10-26T17:13:07.089Z,18.14
2022-10-26T17:15:35.806Z,18.04
2022-10-26T17:18:04.350Z,17.95
2022-10-26T17:20:32.920Z,17.89
2022-10-26T17:23:01.120Z,17.81
2022-10-26T17:25:31.106Z,17.75
2022-10-26T17:27:59.521Z,17.70
2022-10-26T17:30:31.623Z,17.67
2022-10-26T17:33:02.376Z,17.62
2022-10-26T17:35:30.854Z,17.59
2022-10-26T17:38:00.066Z,17.60
2022-10-26T17:40:29.963Z,17.59
2022-10-26T17:42:59.250Z,17.57
2022-10-26T17:45:28.046Z,17.55
2022-10-26T17:47:56.757Z,17.52
2022-10-26T17:50:25.259Z,17.50
2022-10-26T17:52:53.473Z,17.48
2022-10-26T17:55:22.004Z,17.45
2022-10-26T17:57:51.842Z,17.40
2022-10-26T18:00:21.028Z,17.34
2022-10-26T18:02:49.587Z,17.28
2022-10-26T18:05:18.200Z,17.23
2022-10-26T18:07:46.718Z,17.18
2022-10-26T18:10:33.189Z,17.13
2022-10-26T18:13:04.865Z,17.03
2022-10-26T18:15:35.791Z,16.97
2022-10-26T18:18:04.335Z,16.91
2022-10-26T18:20:32.803Z,16.85
2022-10-26T18:23:01.456Z,16.81
2022-10-26T18:25:31.196Z,16.77
2022-10-26T18:27:59.486Z,16.72
2022-10-26T18:30:29.097Z,16.68
2022-10-26T18:32:57.670Z,16.63
2022-10-26T18:35:25.937Z,16.59
2022-10-26T18:37:54.564Z,16.59
2022-10-26T18:40:22.841Z,16.57
2022-10-26T18:42:51.407Z,16.56
2022-10-26T18:45:19.655Z,16.56
2022-10-26T18:47:49.571Z,16.55
2022-10-26T18:50:18.307Z,16.52
2022-10-26T18:52:47.107Z,16.50
2022-10-26T18:55:15.364Z,16.47
2022-10-26T18:57:43.543Z,16.43
2022-10-26T19:00:14.278Z,16.40
2022-10-26T19:02:42.829Z,16.36
2022-10-26T19:05:12.523Z,16.31
2022-10-26T19:07:41.028Z,16.28
2022-10-26T19:10:10.852Z,16.24
2022-10-26T19:12:39.357Z,16.20
2022-10-26T19:15:08.828Z,16.15
2022-10-26T19:17:37.409Z,16.10
2022-10-26T19:20:07.072Z,16.05
2022-10-26T19:22:36.665Z,16.00
2022-10-26T19:25:05.217Z,15.94
2022-10-26T19:27:33.784Z,15.86
2022-10-26T19:30:02.564Z,15.82
2022-10-26T19:32:31.146Z,15.77
2022-10-26T19:34:59.713Z,15.70
2022-10-26T19:37:28.614Z,15.67
2022-10-26T19:39:58.321Z,15.62
2022-10-26T19:42:26.592Z,15.59
2022-10-26T19:44:55.178Z,15.57
2022-10-26T19:47:23.878Z,15.54
2022-10-26T19:49:52.394Z,15.53
2022-10-26T19:52:20.915Z,15.51
2022-10-26T19:54:49.419Z,15.49
2022-10-26T19:57:18.957Z,15.48
2022-10-26T19:59:47.489Z,15.43
2022-10-26T20:02:15.945Z,15.36
2022-10-26T20:04:45.298Z,15.29
2022-10-26T20:07:15.358Z,15.23
2022-10-26T20:09:43.880Z,15.17
2022-10-26T20:12:12.602Z,15.13
2022-10-26T20:14:42.273Z,15.07
2022-10-26T20:17:10.902Z,15.01
2022-10-26T20:19:39.474Z,14.93
2022-10-26T20:22:07.953Z,14.84
2022-10-26T20:24:36.525Z,14.77
2022-10-26T20:27:04.949Z,14.72
2022-10-26T20:29:33.217Z,14.68
2022-10-26T20:32:02.758Z,14.67
2022-10-26T20:34:31.311Z,14.64
2022-10-26T20:36:59.822Z,14.61
2022-10-26T20:39:28.892Z,14.59
2022-10-26T20:41:57.996Z,14.56
2022-10-26T20:44:32.128Z,14.54
2022-10-26T20:47:02.665Z,14.51
2022-10-26T20:49:31.777Z,14.48
2022-10-26T20:52:22.321Z,14.45
2022-10-26T20:55:00.956Z,14.42
2022-10-26T20:57:32.664Z,14.40
2022-10-26T21:00:05.739Z,14.38
2022-10-26T21:02:35.725Z,14.37
2022-10-26T21:05:04.800Z,14.36
2022-10-26T21:07:33.364Z,14.35
2022-10-26T21:10:01.846Z,14.34
2022-10-26T21:12:30.318Z,14.32
2022-10-26T21:14:58.550Z,14.31
2022-10-26T21:17:26.740Z,14.30
2022-10-26T21:19:56.395Z,14.28
2022-10-26T21:22:24.923Z,14.25
2022-10-26T21:24:53.244Z,14.23
2022-10-26T21:27:21.945Z,14.20
2022-10-26T21:29:50.170Z,14.15
2022-10-26T21:32:18.701Z,14.10
2022-10-26T21:34:47.200Z,14.08
2022-10-26T21:37:16.744Z,14.06
2022-10-26T21:39:45.277Z,14.04
2022-10-26T21:42:13.810Z,14.03
2022-10-26T21:44:42.334Z,14.01
2022-10-26T21:47:11.097Z,13.98
2022-10-26T21:52:13.479Z,13.92
2022-10-26T21:54:43.025Z,13.90
2022-10-26T21:57:11.543Z,13.87
2022-10-26T21:59:40.048Z,13.82
2022-10-26T22:02:08.892Z,13.80
2022-10-26T22:04:38.558Z,13.76
2022-10-26T22:07:07.168Z,13.73
2022-10-26T22:09:44.749Z,13.72
2022-10-26T22:12:25.385Z,13.69
2022-10-26T22:14:53.900Z,13.68
2022-10-26T22:17:22.433Z,13.66
2022-10-26T22:19:50.643Z,13.65
2022-10-26T22:22:19.129Z,13.64
2022-10-26T22:24:47.608Z,13.63
2022-10-26T22:27:16.243Z,13.63
2022-10-26T22:29:45.802Z,13.61
2022-10-26T22:32:14.302Z,13.60
2022-10-26T22:34:42.839Z,13.56
2022-10-26T22:37:11.040Z,13.54
2022-10-26T22:39:39.569Z,13.51
2022-10-26T22:42:08.123Z,13.47
2022-10-26T22:44:36.911Z,13.43
2022-10-26T22:47:06.511Z,13.41
2022-10-26T22:49:35.008Z,13.40
2022-10-26T22:52:03.492Z,13.39
2022-10-26T22:54:32.000Z,13.39
2022-10-26T22:57:00.223Z,13.39
2022-10-26T22:59:28.755Z,13.37
2022-10-26T23:01:57.391Z,13.38
2022-10-26T23:04:27.071Z,13.37
2022-10-26T23:06:55.555Z,13.35
2022-10-26T23:09:24.050Z,13.34
2022-10-26T23:11:52.764Z,13.31
2022-10-26T23:14:21.248Z,13.29
2022-10-26T23:16:49.758Z,13.24
2022-10-26T23:19:18.258Z,13.21
2022-10-26T23:21:47.816Z,13.17
2022-10-26T23:24:16.292Z,13.13
2022-10-26T23:26:44.475Z,13.08
2022-10-26T23:29:12.935Z,13.05
2022-10-26T23:31:41.419Z,13.03
2022-10-26T23:34:10.514Z,13.00
2022-10-26T23:36:39.003Z,12.96
2022-10-26T23:39:08.541Z,12.93
2022-10-26T23:41:37.085Z,12.91
2022-10-26T23:44:06.247Z,12.90
2022-10-26T23:46:34.744Z,12.83
2022-10-26T23:49:03.296Z,12.78
2022-10-26T23:51:31.788Z,12.75
2022-10-26T23:54:00.271Z,12.72
2022-10-26T23:56:29.790Z,12.69
2022-10-26T23:59:00.878Z,12.65
